sensor_id;sensor_type;location;lat;lon;timestamp;pressure;altitude;pressure_sealevel;temperature;humidity
65131;BME280;51709;54.912;8.316;2023-11-18T00:02:59;102297.88;;;6.63;93.14
65131;BME280;51709;54.912;8.316;2023-11-18T00:08:22;102296.22;;;6.46;93.27
65131;BME280;51709;54.912;8.316;2023-11-18T00:13:48;102301.53;;;6.33;93.13
65131;BME280;51709;54.912;8.316;2023-11-18T00:19:09;102314.75;;;6.24;93.71
65131;BME280;51709;54.912;8.316;2023-11-18T00:24:29;102316.00;;;6.18;93.46
65131;BME280;51709;54.912;8.316;2023-11-18T00:29:50;102320.19;;;6.08;93.69
65131;BME280;51709;54.912;8.316;2023-11-18T00:35:11;102324.44;;;5.98;93.66
65131;BME280;51709;54.912;8.316;2023-11-18T00:40:32;102318.72;;;5.89;93.85
65131;BME280;51709;54.912;8.316;2023-11-18T00:45:52;102311.91;;;5.82;93.62
65131;BME280;51709;54.912;8.316;2023-11-18T00:51:13;102313.34;;;5.73;93.54
65131;BME280;51709;54.912;8.316;2023-11-18T00:56:34;102302.41;;;5.61;94.04
65131;BME280;51709;54.912;8.316;2023-11-18T01:01:54;102302.78;;;5.55;94.00
65131;BME280;51709;54.912;8.316;2023-11-18T01:07:15;102313.75;;;5.52;94.34
65131;BME280;51709;54.912;8.316;2023-11-18T01:12:36;102336.25;;;5.51;94.00
65131;BME280;51709;54.912;8.316;2023-11-18T01:17:56;102337.66;;;5.42;94.29
65131;BME280;51709;54.912;8.316;2023-11-18T01:23:17;102346.38;;;5.31;94.30
65131;BME280;51709;54.912;8.316;2023-11-18T01:28:38;102334.81;;;5.29;94.47
65131;BME280;51709;54.912;8.316;2023-11-18T01:34:02;102346.00;;;5.22;94.28
65131;BME280;51709;54.912;8.316;2023-11-18T01:39:24;102352.63;;;5.16;94.21
65131;BME280;51709;54.912;8.316;2023-11-18T01:44:47;102360.53;;;5.19;94.40
65131;BME280;51709;54.912;8.316;2023-11-18T01:50:10;102355.94;;;5.21;93.99
65131;BME280;51709;54.912;8.316;2023-11-18T01:55:32;102367.84;;;5.17;94.14
65131;BME280;51709;54.912;8.316;2023-11-18T02:00:55;102368.34;;;5.24;94.09
65131;BME280;51709;54.912;8.316;2023-11-18T02:06:15;102358.03;;;5.32;93.73
65131;BME280;51709;54.912;8.316;2023-11-18T02:11:45;102358.63;;;5.37;93.76
65131;BME280;51709;54.912;8.316;2023-11-18T02:17:09;102355.50;;;5.45;93.91
65131;BME280;51709;54.912;8.316;2023-11-18T02:22:32;102346.78;;;5.55;93.75
65131;BME280;51709;54.912;8.316;2023-11-18T02:27:53;102351.09;;;5.58;93.52
65131;BME280;51709;54.912;8.316;2023-11-18T02:33:27;102358.34;;;5.57;93.88
65131;BME280;51709;54.912;8.316;2023-11-18T02:38:55;102334.22;;;5.70;93.88
65131;BME280;51709;54.912;8.316;2023-11-18T02:44:17;102323.59;;;5.67;93.65
65131;BME280;51709;54.912;8.316;2023-11-18T02:49:37;102316.28;;;5.69;93.73
65131;BME280;51709;54.912;8.316;2023-11-18T02:55:00;102327.09;;;5.69;93.90
65131;BME280;51709;54.912;8.316;2023-11-18T03:00:20;102330.75;;;5.68;93.63
65131;BME280;51709;54.912;8.316;2023-11-18T03:05:44;102330.06;;;5.64;93.80
65131;BME280;51709;54.912;8.316;2023-11-18T03:11:06;102334.69;;;5.62;93.83
65131;BME280;51709;54.912;8.316;2023-11-18T03:16:29;102329.53;;;5.58;94.02
65131;BME280;51709;54.912;8.316;2023-11-18T03:21:51;102320.06;;;5.51;94.14
65131;BME280;51709;54.912;8.316;2023-11-18T03:27:13;102315.84;;;5.47;94.03
65131;BME280;51709;54.912;8.316;2023-11-18T03:32:38;102313.50;;;5.41;94.29
65131;BME280;51709;54.912;8.316;2023-11-18T03:38:00;102313.50;;;5.41;94.39
65131;BME280;51709;54.912;8.316;2023-11-18T03:43:20;102305.59;;;5.38;94.47
65131;BME280;51709;54.912;8.316;2023-11-18T03:48:43;102305.75;;;5.34;94.41
65131;BME280;51709;54.912;8.316;2023-11-18T03:54:04;102296.06;;;5.32;94.23
65131;BME280;51709;54.912;8.316;2023-11-18T03:59:25;102302.47;;;5.29;94.46
65131;BME280;51709;54.912;8.316;2023-11-18T04:04:46;102317.59;;;5.32;94.33
65131;BME280;51709;54.912;8.316;2023-11-18T04:10:08;102311.44;;;5.30;94.07
65131;BME280;51709;54.912;8.316;2023-11-18T04:15:31;102306.81;;;5.32;94.05
65131;BME280;51709;54.912;8.316;2023-11-18T04:20:51;102309.63;;;5.30;94.27
65131;BME280;51709;54.912;8.316;2023-11-18T04:26:12;102297.09;;;5.29;94.26
65131;BME280;51709;54.912;8.316;2023-11-18T04:31:33;102295.16;;;5.31;94.17
65131;BME280;51709;54.912;8.316;2023-11-18T04:36:54;102286.13;;;5.32;94.20
65131;BME280;51709;54.912;8.316;2023-11-18T04:42:16;102285.97;;;5.36;94.05
65131;BME280;51709;54.912;8.316;2023-11-18T04:47:37;102281.41;;;5.36;94.21
65131;BME280;51709;54.912;8.316;2023-11-18T04:52:59;102264.22;;;5.39;93.93
65131;BME280;51709;54.912;8.316;2023-11-18T04:58:20;102266.31;;;5.33;94.05
65131;BME280;51709;54.912;8.316;2023-11-18T05:03:41;102262.56;;;5.36;94.20
65131;BME280;51709;54.912;8.316;2023-11-18T05:09:02;102249.97;;;5.37;94.09
65131;BME280;51709;54.912;8.316;2023-11-18T05:14:22;102252.66;;;5.37;94.14
65131;BME280;51709;54.912;8.316;2023-11-18T05:19:43;102243.78;;;5.34;94.05
65131;BME280;51709;54.912;8.316;2023-11-18T05:25:03;102230.31;;;5.34;93.91
65131;BME280;51709;54.912;8.316;2023-11-18T05:30:28;102246.56;;;5.33;93.94
65131;BME280;51709;54.912;8.316;2023-11-18T05:35:51;102245.63;;;5.34;94.28
65131;BME280;51709;54.912;8.316;2023-11-18T05:41:11;102246.47;;;5.34;93.82
65131;BME280;51709;54.912;8.316;2023-11-18T05:46:37;102250.84;;;5.37;94.09
65131;BME280;51709;54.912;8.316;2023-11-18T05:51:59;102240.75;;;5.41;94.06
65131;BME280;51709;54.912;8.316;2023-11-18T05:57:20;102239.69;;;5.43;93.86
65131;BME280;51709;54.912;8.316;2023-11-18T06:02:43;102244.22;;;5.43;93.78
65131;BME280;51709;54.912;8.316;2023-11-18T06:08:04;102245.00;;;5.45;93.68
65131;BME280;51709;54.912;8.316;2023-11-18T06:13:25;102252.22;;;5.44;93.95
65131;BME280;51709;54.912;8.316;2023-11-18T06:18:50;102234.22;;;5.45;94.05
65131;BME280;51709;54.912;8.316;2023-11-18T06:24:11;102243.16;;;5.45;94.24
65131;BME280;51709;54.912;8.316;2023-11-18T06:29:34;102254.81;;;5.46;94.30
65131;BME280;51709;54.912;8.316;2023-11-18T06:34:55;102256.47;;;5.48;94.12
65131;BME280;51709;54.912;8.316;2023-11-18T06:40:15;102261.94;;;5.47;94.20
65131;BME280;51709;54.912;8.316;2023-11-18T06:45:42;102265.44;;;5.49;94.45
65131;BME280;51709;54.912;8.316;2023-11-18T06:51:03;102258.50;;;5.59;94.15
65131;BME280;51709;54.912;8.316;2023-11-18T06:56:27;102240.31;;;5.62;93.95
65131;BME280;51709;54.912;8.316;2023-11-18T07:01:47;102250.81;;;5.67;93.65
65131;BME280;51709;54.912;8.316;2023-11-18T07:07:13;102241.78;;;5.68;93.60
65131;BME280;51709;54.912;8.316;2023-11-18T07:12:33;102249.00;;;5.67;93.19
65131;BME280;51709;54.912;8.316;2023-11-18T07:17:54;102245.16;;;5.71;93.45
65131;BME280;51709;54.912;8.316;2023-11-18T07:23:17;102239.47;;;5.76;93.64
65131;BME280;51709;54.912;8.316;2023-11-18T07:28:37;102248.78;;;5.86;93.63
65131;BME280;51709;54.912;8.316;2023-11-18T07:33:59;102240.03;;;5.96;93.42
65131;BME280;51709;54.912;8.316;2023-11-18T07:39:19;102215.28;;;6.04;93.43
65131;BME280;51709;54.912;8.316;2023-11-18T07:45:01;102205.63;;;6.14;93.42
65131;BME280;51709;54.912;8.316;2023-11-18T07:50:24;102200.44;;;6.25;93.51
65131;BME280;51709;54.912;8.316;2023-11-18T07:55:45;102208.16;;;6.31;93.18
65131;BME280;51709;54.912;8.316;2023-11-18T08:01:05;102211.69;;;6.31;93.08
65131;BME280;51709;54.912;8.316;2023-11-18T08:06:29;102215.38;;;6.30;93.48
65131;BME280;51709;54.912;8.316;2023-11-18T08:11:52;102219.13;;;6.28;93.44
65131;BME280;51709;54.912;8.316;2023-11-18T08:17:16;102209.31;;;6.27;93.38
65131;BME280;51709;54.912;8.316;2023-11-18T08:22:36;102201.00;;;6.30;93.38
65131;BME280;51709;54.912;8.316;2023-11-18T08:27:57;102198.31;;;6.30;93.37
65131;BME280;51709;54.912;8.316;2023-11-18T08:33:19;102196.94;;;6.37;93.29
65131;BME280;51709;54.912;8.316;2023-11-18T08:38:40;102185.88;;;6.42;93.65
65131;BME280;51709;54.912;8.316;2023-11-18T08:44:00;102179.78;;;6.52;93.38
65131;BME280;51709;54.912;8.316;2023-11-18T08:49:43;102174.50;;;6.77;93.18
65131;BME280;51709;54.912;8.316;2023-11-18T08:55:06;102175.03;;;7.09;92.74
65131;BME280;51709;54.912;8.316;2023-11-18T09:00:35;102163.38;;;7.08;92.45
65131;BME280;51709;54.912;8.316;2023-11-18T09:06:22;102172.88;;;7.01;92.43
65131;BME280;51709;54.912;8.316;2023-11-18T09:11:46;102170.03;;;6.90;92.75
65131;BME280;51709;54.912;8.316;2023-11-18T09:17:08;102180.25;;;7.12;92.86
65131;BME280;51709;54.912;8.316;2023-11-18T09:22:29;102184.84;;;7.36;92.40
65131;BME280;51709;54.912;8.316;2023-11-18T09:27:51;102170.59;;;7.47;92.10
65131;BME280;51709;54.912;8.316;2023-11-18T09:33:12;102167.84;;;7.34;91.92
65131;BME280;51709;54.912;8.316;2023-11-18T09:38:35;102171.47;;;7.60;92.01
65131;BME280;51709;54.912;8.316;2023-11-18T09:43:56;102178.84;;;7.71;92.03
65131;BME280;51709;54.912;8.316;2023-11-18T09:49:27;102155.84;;;8.39;91.65
65131;BME280;51709;54.912;8.316;2023-11-18T09:55:02;102129.22;;;9.27;90.67
65131;BME280;51709;54.912;8.316;2023-11-18T10:00:24;102121.84;;;10.30;89.56
65131;BME280;51709;54.912;8.316;2023-11-18T10:05:54;102108.38;;;10.83;89.04
65131;BME280;51709;54.912;8.316;2023-11-18T10:11:16;102116.41;;;10.73;89.35
65131;BME280;51709;54.912;8.316;2023-11-18T10:16:36;102105.22;;;10.56;89.18
65131;BME280;51709;54.912;8.316;2023-11-18T10:21:58;102089.34;;;9.74;91.01
65131;BME280;51709;54.912;8.316;2023-11-18T10:27:24;102072.19;;;9.51;91.16
65131;BME280;51709;54.912;8.316;2023-11-18T10:33:00;102066.34;;;9.22;91.13
65131;BME280;51709;54.912;8.316;2023-11-18T10:38:26;102061.84;;;9.10;91.34
65131;BME280;51709;54.912;8.316;2023-11-18T10:44:05;102037.00;;;8.47;91.50
65131;BME280;51709;54.912;8.316;2023-11-18T10:49:29;102036.53;;;8.29;92.15
65131;BME280;51709;54.912;8.316;2023-11-18T10:54:58;102027.00;;;8.24;92.08
65131;BME280;51709;54.912;8.316;2023-11-18T11:00:18;102035.63;;;8.41;92.13
65131;BME280;51709;54.912;8.316;2023-11-18T11:05:40;102030.59;;;9.17;90.85
65131;BME280;51709;54.912;8.316;2023-11-18T11:11:04;102026.78;;;8.85;91.24
65131;BME280;51709;54.912;8.316;2023-11-18T11:16:33;102017.47;;;8.31;91.96
65131;BME280;51709;54.912;8.316;2023-11-18T11:22:05;102035.19;;;7.99;92.28
65131;BME280;51709;54.912;8.316;2023-11-18T11:27:33;102044.59;;;8.06;92.49
65131;BME280;51709;54.912;8.316;2023-11-18T11:33:18;102025.28;;;7.87;92.20
65131;BME280;51709;54.912;8.316;2023-11-18T11:38:42;102032.72;;;7.96;92.36
65131;BME280;51709;54.912;8.316;2023-11-18T11:44:07;102018.69;;;8.27;91.93
65131;BME280;51709;54.912;8.316;2023-11-18T11:49:36;101996.59;;;8.44;91.34
65131;BME280;51709;54.912;8.316;2023-11-18T11:55:10;102002.09;;;8.19;91.73
65131;BME280;51709;54.912;8.316;2023-11-18T12:00:32;101985.03;;;8.18;92.11
65131;BME280;51709;54.912;8.316;2023-11-18T12:05:55;101978.59;;;7.96;92.36
65131;BME280;51709;54.912;8.316;2023-11-18T12:11:17;101966.84;;;7.84;92.66
65131;BME280;51709;54.912;8.316;2023-11-18T12:17:00;101969.81;;;7.69;92.30
65131;BME280;51709;54.912;8.316;2023-11-18T12:22:23;101958.78;;;7.72;92.68
65131;BME280;51709;54.912;8.316;2023-11-18T12:27:56;101936.06;;;7.62;92.70
65131;BME280;51709;54.912;8.316;2023-11-18T12:33:19;101937.50;;;7.55;92.90
65131;BME280;51709;54.912;8.316;2023-11-18T12:39:07;101927.88;;;7.51;93.00
65131;BME280;51709;54.912;8.316;2023-11-18T12:44:38;101912.72;;;7.61;92.96
65131;BME280;51709;54.912;8.316;2023-11-18T12:50:08;101891.59;;;7.66;92.87
65131;BME280;51709;54.912;8.316;2023-11-18T12:55:39;101864.69;;;7.64;92.78
65131;BME280;51709;54.912;8.316;2023-11-18T13:00:59;101870.25;;;7.74;92.82
65131;BME280;51709;54.912;8.316;2023-11-18T13:06:20;101850.16;;;7.65;93.24
65131;BME280;51709;54.912;8.316;2023-11-18T13:11:46;101856.91;;;7.60;93.40
65131;BME280;51709;54.912;8.316;2023-11-18T13:17:11;101847.66;;;7.51;93.62
65131;BME280;51709;54.912;8.316;2023-11-18T13:22:32;101845.25;;;7.47;93.60
65131;BME280;51709;54.912;8.316;2023-11-18T13:28:10;101817.97;;;7.38;93.49
65131;BME280;51709;54.912;8.316;2023-11-18T13:33:31;101811.97;;;7.46;93.62
65131;BME280;51709;54.912;8.316;2023-11-18T13:38:51;101804.69;;;7.35;93.54
65131;BME280;51709;54.912;8.316;2023-11-18T13:44:12;101798.41;;;7.35;93.54
65131;BME280;51709;54.912;8.316;2023-11-18T13:49:33;101779.38;;;7.36;93.59
65131;BME280;51709;54.912;8.316;2023-11-18T13:54:58;101756.97;;;7.34;93.54
65131;BME280;51709;54.912;8.316;2023-11-18T14:00:22;101760.88;;;7.30;93.71
65131;BME280;51709;54.912;8.316;2023-11-18T14:05:43;101749.13;;;7.31;93.72
65131;BME280;51709;54.912;8.316;2023-11-18T14:11:08;101740.25;;;7.29;93.83
65131;BME280;51709;54.912;8.316;2023-11-18T14:16:36;101720.59;;;7.27;93.91
65131;BME280;51709;54.912;8.316;2023-11-18T14:21:58;101722.53;;;7.25;93.79
65131;BME280;51709;54.912;8.316;2023-11-18T14:27:18;101714.44;;;7.25;93.80
65131;BME280;51709;54.912;8.316;2023-11-18T14:32:39;101715.19;;;7.27;93.87
65131;BME280;51709;54.912;8.316;2023-11-18T14:38:01;101697.25;;;7.26;93.74
65131;BME280;51709;54.912;8.316;2023-11-18T14:43:22;101679.94;;;7.29;94.16
65131;BME280;51709;54.912;8.316;2023-11-18T14:48:43;101670.84;;;7.30;93.82
65131;BME280;51709;54.912;8.316;2023-11-18T14:54:04;101640.38;;;7.28;94.02
65131;BME280;51709;54.912;8.316;2023-11-18T14:59:26;101644.91;;;7.27;94.05
65131;BME280;51709;54.912;8.316;2023-11-18T15:04:47;101629.31;;;7.31;93.99
65131;BME280;51709;54.912;8.316;2023-11-18T15:10:08;101632.28;;;7.28;93.69
65131;BME280;51709;54.912;8.316;2023-11-18T15:15:31;101605.47;;;7.25;93.54
65131;BME280;51709;54.912;8.316;2023-11-18T15:20:52;101596.28;;;7.27;93.69
65131;BME280;51709;54.912;8.316;2023-11-18T15:26:12;101599.91;;;7.50;93.92
65131;BME280;51709;54.912;8.316;2023-11-18T15:31:33;101596.56;;;7.58;93.72
65131;BME280;51709;54.912;8.316;2023-11-18T15:36:53;101582.94;;;7.48;93.85
65131;BME280;51709;54.912;8.316;2023-11-18T15:42:14;101576.66;;;7.48;93.72
65131;BME280;51709;54.912;8.316;2023-11-18T15:47:35;101570.63;;;7.44;93.95
65131;BME280;51709;54.912;8.316;2023-11-18T15:52:57;101570.22;;;7.37;93.85
65131;BME280;51709;54.912;8.316;2023-11-18T15:58:18;101568.53;;;7.36;93.88
65131;BME280;51709;54.912;8.316;2023-11-18T16:03:40;101540.00;;;7.32;93.87
65131;BME280;51709;54.912;8.316;2023-11-18T16:09:01;101530.94;;;7.33;93.60
65131;BME280;51709;54.912;8.316;2023-11-18T16:14:23;101531.28;;;7.29;93.74
65131;BME280;51709;54.912;8.316;2023-11-18T16:19:45;101542.22;;;7.27;93.97
65131;BME280;51709;54.912;8.316;2023-11-18T16:25:06;101517.16;;;7.25;94.13
65131;BME280;51709;54.912;8.316;2023-11-18T16:30:28;101508.81;;;7.17;93.83
65131;BME280;51709;54.912;8.316;2023-11-18T16:35:53;101517.88;;;7.16;93.86
65131;BME280;51709;54.912;8.316;2023-11-18T16:41:15;101510.03;;;7.13;93.77
65131;BME280;51709;54.912;8.316;2023-11-18T16:46:38;101497.47;;;7.01;94.18
65131;BME280;51709;54.912;8.316;2023-11-18T16:52:00;101494.75;;;6.90;94.04
65131;BME280;51709;54.912;8.316;2023-11-18T16:57:24;101494.47;;;6.82;94.36
65131;BME280;51709;54.912;8.316;2023-11-18T17:02:47;101482.31;;;6.77;94.36
65131;BME280;51709;54.912;8.316;2023-11-18T17:08:11;101464.84;;;6.70;94.43
65131;BME280;51709;54.912;8.316;2023-11-18T17:13:33;101467.44;;;6.60;94.68
65131;BME280;51709;54.912;8.316;2023-11-18T17:18:54;101459.53;;;6.57;95.02
65131;BME280;51709;54.912;8.316;2023-11-18T17:24:15;101458.78;;;6.55;94.95
65131;BME280;51709;54.912;8.316;2023-11-18T17:29:35;101460.88;;;6.52;95.12
65131;BME280;51709;54.912;8.316;2023-11-18T17:34:58;101414.16;;;6.51;95.01
65131;BME280;51709;54.912;8.316;2023-11-18T17:40:27;101395.47;;;6.48;95.31
65131;BME280;51709;54.912;8.316;2023-11-18T17:45:48;101379.28;;;6.48;95.20
65131;BME280;51709;54.912;8.316;2023-11-18T17:51:09;101384.06;;;6.45;95.09
65131;BME280;51709;54.912;8.316;2023-11-18T17:56:30;101389.59;;;6.43;94.99
65131;BME280;51709;54.912;8.316;2023-11-18T18:01:51;101372.41;;;6.44;95.07
65131;BME280;51709;54.912;8.316;2023-11-18T18:07:14;101370.31;;;6.37;94.97
65131;BME280;51709;54.912;8.316;2023-11-18T18:12:35;101356.91;;;6.35;94.92
65131;BME280;51709;54.912;8.316;2023-11-18T18:17:56;101350.28;;;6.28;95.14
65131;BME280;51709;54.912;8.316;2023-11-18T18:23:16;101349.03;;;6.21;95.10
65131;BME280;51709;54.912;8.316;2023-11-18T18:28:37;101333.97;;;6.18;95.10
65131;BME280;51709;54.912;8.316;2023-11-18T18:33:58;101329.19;;;6.22;95.00
65131;BME280;51709;54.912;8.316;2023-11-18T18:39:18;101314.72;;;6.23;95.09
65131;BME280;51709;54.912;8.316;2023-11-18T18:44:39;101313.00;;;6.22;95.15
65131;BME280;51709;54.912;8.316;2023-11-18T18:49:59;101291.91;;;6.16;95.24
65131;BME280;51709;54.912;8.316;2023-11-18T18:55:20;101289.06;;;6.17;95.55
65131;BME280;51709;54.912;8.316;2023-11-18T19:00:41;101265.16;;;6.13;95.54
65131;BME280;51709;54.912;8.316;2023-11-18T19:06:02;101236.25;;;6.15;95.28
65131;BME280;51709;54.912;8.316;2023-11-18T19:11:23;101224.47;;;6.16;95.35
65131;BME280;51709;54.912;8.316;2023-11-18T19:16:44;101207.06;;;6.20;95.40
65131;BME280;51709;54.912;8.316;2023-11-18T19:22:04;101205.84;;;6.24;95.43
65131;BME280;51709;54.912;8.316;2023-11-18T19:27:26;101169.44;;;6.18;95.73
65131;BME280;51709;54.912;8.316;2023-11-18T19:32:47;101153.84;;;6.22;95.72
65131;BME280;51709;54.912;8.316;2023-11-18T19:38:07;101136.94;;;6.20;95.55
65131;BME280;51709;54.912;8.316;2023-11-18T19:43:29;101140.38;;;6.22;95.16
65131;BME280;51709;54.912;8.316;2023-11-18T19:48:50;101106.25;;;6.21;95.16
65131;BME280;51709;54.912;8.316;2023-11-18T19:54:10;101112.13;;;6.26;95.11
65131;BME280;51709;54.912;8.316;2023-11-18T19:59:31;101113.75;;;6.28;94.89
65131;BME280;51709;54.912;8.316;2023-11-18T20:04:53;101106.63;;;6.27;95.03
65131;BME280;51709;54.912;8.316;2023-11-18T20:10:14;101060.53;;;6.30;95.07
65131;BME280;51709;54.912;8.316;2023-11-18T20:15:35;101079.41;;;6.30;95.12
65131;BME280;51709;54.912;8.316;2023-11-18T20:20:58;101080.28;;;6.31;95.23
65131;BME280;51709;54.912;8.316;2023-11-18T20:26:18;101062.13;;;6.33;94.97
65131;BME280;51709;54.912;8.316;2023-11-18T20:31:39;101031.19;;;6.37;94.80
65131;BME280;51709;54.912;8.316;2023-11-18T20:37:00;101028.38;;;6.39;95.07
65131;BME280;51709;54.912;8.316;2023-11-18T20:42:21;101027.84;;;6.45;94.86
65131;BME280;51709;54.912;8.316;2023-11-18T20:47:42;100995.47;;;6.45;94.63
65131;BME280;51709;54.912;8.316;2023-11-18T20:53:03;100971.59;;;6.40;94.91
65131;BME280;51709;54.912;8.316;2023-11-18T20:58:24;100969.84;;;6.39;94.65
65131;BME280;51709;54.912;8.316;2023-11-18T21:03:46;100958.81;;;6.42;94.59
65131;BME280;51709;54.912;8.316;2023-11-18T21:09:08;100943.88;;;6.38;94.75
65131;BME280;51709;54.912;8.316;2023-11-18T21:14:28;100922.66;;;6.33;94.86
65131;BME280;51709;54.912;8.316;2023-11-18T21:19:51;100896.56;;;6.34;94.66
65131;BME280;51709;54.912;8.316;2023-11-18T21:25:15;100887.72;;;6.32;94.94
65131;BME280;51709;54.912;8.316;2023-11-18T21:30:36;100876.63;;;6.25;94.70
65131;BME280;51709;54.912;8.316;2023-11-18T21:35:57;100842.19;;;6.18;94.86
65131;BME280;51709;54.912;8.316;2023-11-18T21:41:17;100839.03;;;6.13;94.99
65131;BME280;51709;54.912;8.316;2023-11-18T21:46:38;100814.03;;;6.11;95.03
65131;BME280;51709;54.912;8.316;2023-11-18T21:51:58;100817.47;;;6.13;95.01
65131;BME280;51709;54.912;8.316;2023-11-18T21:57:19;100799.56;;;6.12;94.88
65131;BME280;51709;54.912;8.316;2023-11-18T22:02:42;100802.41;;;6.10;95.15
65131;BME280;51709;54.912;8.316;2023-11-18T22:08:06;100785.09;;;6.13;95.00
65131;BME280;51709;54.912;8.316;2023-11-18T22:13:28;100785.34;;;6.10;95.09
65131;BME280;51709;54.912;8.316;2023-11-18T22:18:48;100743.22;;;6.09;95.21
65131;BME280;51709;54.912;8.316;2023-11-18T22:24:09;100753.34;;;6.16;95.11
65131;BME280;51709;54.912;8.316;2023-11-18T22:29:30;100739.25;;;6.13;95.19
65131;BME280;51709;54.912;8.316;2023-11-18T22:34:51;100741.41;;;6.19;95.29
65131;BME280;51709;54.912;8.316;2023-11-18T22:40:13;100710.78;;;6.20;95.44
65131;BME280;51709;54.912;8.316;2023-11-18T22:45:37;100706.34;;;6.19;95.27
65131;BME280;51709;54.912;8.316;2023-11-18T22:50:57;100697.13;;;6.21;95.16
65131;BME280;51709;54.912;8.316;2023-11-18T22:56:18;100667.53;;;6.31;95.32
65131;BME280;51709;54.912;8.316;2023-11-18T23:01:40;100661.84;;;6.34;94.90
65131;BME280;51709;54.912;8.316;2023-11-18T23:07:03;100664.84;;;6.31;95.09
65131;BME280;51709;54.912;8.316;2023-11-18T23:12:26;100642.25;;;6.32;94.91
65131;BME280;51709;54.912;8.316;2023-11-18T23:17:47;100621.66;;;6.31;94.89
65131;BME280;51709;54.912;8.316;2023-11-18T23:23:10;100603.50;;;6.33;95.14
65131;BME280;51709;54.912;8.316;2023-11-18T23:28:32;100609.00;;;6.31;94.99
65131;BME280;51709;54.912;8.316;2023-11-18T23:33:53;100586.84;;;6.28;95.12
65131;BME280;51709;54.912;8.316;2023-11-18T23:39:14;100582.47;;;6.27;95.08
65131;BME280;51709;54.912;8.316;2023-11-18T23:44:36;100571.97;;;6.24;95.12
65131;BME280;51709;54.912;8.316;2023-11-18T23:49:57;100546.97;;;6.22;95.00
65131;BME280;51709;54.912;8.316;2023-11-18T23:55:17;100557.75;;;6.22;94.99
